Rands, Iowa
Current Conditions -  °F | °C
As of 11:35 AM on Friday 19 Dec 2014 (Local Time) from KCIN Reporting Station
Haze Haze  
Wind Chill: 24°   Ceiling: 700
Heat Index: 32°   Visibility: 3mi
Dew Point: 30°   Wind: 10mph
Humidity: 93%   Direction: 170°S
Pressure: 30.21"   Gusts: NA
Location:  42.385°N, 94.6304°W
Report Text: KCIN 191735Z AUTO 17009KT 3SM BR OVC007 M00/M01 A3021 RMK AO2
Loading
Personal Weather Stations






























Interactive Weather Map New forecast layout! Learn more

10-Day Weather Forecast

Advertisements
Track Severe Weather on mobile